Time;durP1;ratioP1;P1;durP2;ratioP2;P2;SDS_P1;SDS_P2;PMS_P1;PMS_P2;Temp;Humidity;BMP_temperature;BMP_pressure;BME280_temperature;BME280_humidity;BME280_pressure;Samples;Min_cycle;Max_cycle;Signal;HPM_P1;HPM_P2
2022/03/18 00:00:24;;;;;;;57.47;45.13;;;7.60;55.00;;;;;;5033578;28;20418;-70
2022/03/18 00:02:52;;;;;;;46.87;36.10;;;7.50;55.10;;;;;;5033301;28;20461;-71
2022/03/18 00:05:19;;;;;;;45.70;33.60;;;7.40;56.60;;;;;;5033091;28;20425;-70
2022/03/18 00:07:46;;;;;;;47.73;37.90;;;7.60;56.40;;;;;;5032830;28;20441;-70
2022/03/18 00:10:16;;;;;;;51.10;39.43;;;7.60;55.20;;;;;;5048500;28;20691;-71
2022/03/18 00:12:42;;;;;;;45.30;35.47;;;7.60;54.90;;;;;;5033049;28;20993;-70
2022/03/18 00:15:11;;;;;;;49.40;34.50;;;7.70;55.40;;;;;;5033256;28;20461;-70
2022/03/18 00:17:37;;;;;;;45.37;32.80;;;7.70;54.40;;;;;;5047818;28;20524;-70
2022/03/18 00:20:05;;;;;;;50.90;34.97;;;7.90;53.50;;;;;;5032969;28;20423;-71
2022/03/18 00:22:30;;;;;;;44.13;35.77;;;7.80;53.00;;;;;;5032665;28;20462;-70
2022/03/18 00:24:56;;;;;;;48.93;38.83;;;8.00;52.90;;;;;;5032788;28;20871;-71
2022/03/18 00:27:23;;;;;;;50.90;34.87;;;7.70;52.50;;;;;;5047983;28;20184;-70
2022/03/18 00:29:49;;;;;;;43.90;32.30;;;7.80;53.30;;;;;;5047949;28;20238;-70
2022/03/18 00:32:14;;;;;;;50.33;34.97;;;7.90;53.20;;;;;;5032656;28;20414;-71
2022/03/18 00:34:40;;;;;;;50.57;35.37;;;7.70;53.90;;;;;;5032530;28;20196;-71
2022/03/18 00:37:06;;;;;;;44.30;34.93;;;7.70;54.50;;;;;;5032376;28;20191;-71
2022/03/18 00:39:32;;;;;;;50.60;36.60;;;7.80;53.50;;;;;;5032637;28;20185;-71
2022/03/18 00:41:58;;;;;;;45.30;31.90;;;7.70;54.90;;;;;;5032520;28;20465;-71
2022/03/18 00:44:25;;;;;;;60.90;42.47;;;7.70;54.20;;;;;;5031188;28;20208;-71
2022/03/18 00:46:54;;;;;;;46.43;32.60;;;7.70;53.30;;;;;;5032265;28;20210;-70
2022/03/18 00:52:05;;;;;;;43.80;34.20;;;7.70;54.20;;;;;;5032215;28;20418;-70
2022/03/18 00:54:36;;;;;;;48.03;31.53;;;7.60;54.30;;;;;;5032207;28;20521;-70
2022/03/18 00:57:02;;;;;;;47.50;37.07;;;7.50;54.60;;;;;;5032140;28;20432;-70
2022/03/18 00:59:28;;;;;;;52.13;32.70;;;7.40;55.10;;;;;;5031486;28;20410;-70
2022/03/18 01:01:55;;;;;;;62.37;36.33;;;7.40;55.80;;;;;;5032294;28;20465;-70
2022/03/18 01:04:21;;;;;;;57.43;40.40;;;7.40;55.00;;;;;;5032069;28;20457;-70
2022/03/18 01:06:47;;;;;;;45.27;34.43;;;7.50;55.50;;;;;;5031850;28;20450;-70
2022/03/18 01:09:13;;;;;;;47.87;32.23;;;7.60;55.50;;;;;;5032062;28;20495;-70
2022/03/18 01:11:39;;;;;;;45.33;35.00;;;7.70;55.30;;;;;;5032092;28;20468;-71
2022/03/18 01:14:04;;;;;;;48.93;34.27;;;7.80;54.30;;;;;;5031915;28;20761;-70
2022/03/18 01:16:30;;;;;;;41.20;33.50;;;8.00;52.50;;;;;;5031887;28;20186;-71
2022/03/18 01:18:55;;;;;;;39.40;32.30;;;8.00;51.70;;;;;;5047353;28;20262;-70
2022/03/18 01:21:21;;;;;;;43.30;31.23;;;7.80;51.60;;;;;;5030986;28;20209;-70
2022/03/18 01:23:46;;;;;;;45.73;33.37;;;7.90;52.00;;;;;;5032007;28;20195;-70
2022/03/18 01:26:12;;;;;;;49.90;37.00;;;7.80;52.40;;;;;;5031893;28;20187;-70
2022/03/18 01:28:38;;;;;;;44.50;31.83;;;7.40;54.10;;;;;;5031562;28;20629;-70
2022/03/18 01:31:03;;;;;;;49.67;37.83;;;7.40;55.50;;;;;;5031953;28;20186;-70
2022/03/18 01:33:29;;;;;;;51.20;34.17;;;7.50;55.10;;;;;;5031766;28;20657;-70
2022/03/18 01:35:54;;;;;;;37.37;28.57;;;7.50;55.40;;;;;;5032576;28;20629;-70
2022/03/18 01:38:20;;;;;;;43.53;31.43;;;7.50;55.80;;;;;;5032343;28;20222;-70
2022/03/18 01:40:45;;;;;;;45.53;32.43;;;7.60;54.70;;;;;;5031848;28;20179;-70
2022/03/18 01:43:11;;;;;;;38.77;29.40;;;7.50;54.10;;;;;;5023026;28;20692;-70
2022/03/18 01:45:38;;;;;;;43.53;28.73;;;7.50;54.50;;;;;;5020034;28;20184;-70
2022/03/18 01:48:05;;;;;;;38.87;29.30;;;7.40;55.00;;;;;;5010266;28;20928;-70
2022/03/18 01:50:31;;;;;;;46.23;34.80;;;7.40;55.70;;;;;;5029129;28;20422;-71
2022/03/18 01:52:57;;;;;;;40.07;28.80;;;7.40;55.10;;;;;;5031564;28;20429;-70
2022/03/18 01:55:24;;;;;;;40.33;28.57;;;7.50;56.50;;;;;;5046793;28;20438;-70
2022/03/18 01:57:50;;;;;;;42.37;30.10;;;7.30;55.00;;;;;;5031347;28;20847;-70
2022/03/18 02:00:19;;;;;;;40.63;28.77;;;7.50;55.50;;;;;;5031544;28;20455;-70
2022/03/18 02:02:46;;;;;;;43.70;25.73;;;7.60;54.00;;;;;;5046645;28;20458;-70
2022/03/18 02:05:11;;;;;;;48.10;31.20;;;7.70;53.30;;;;;;5031430;28;20453;-70
2022/03/18 02:07:37;;;;;;;43.40;27.33;;;7.60;53.60;;;;;;5031226;28;20411;-70
2022/03/18 02:10:04;;;;;;;36.40;26.80;;;7.60;53.10;;;;;;5030374;28;20176;-71
2022/03/18 02:12:30;;;;;;;34.57;24.47;;;7.70;52.70;;;;;;5035311;28;20505;-70
2022/03/18 02:14:56;;;;;;;33.70;26.17;;;7.80;52.60;;;;;;5035246;28;20542;-70
2022/03/18 02:17:22;;;;;;;38.47;27.57;;;7.70;52.30;;;;;;5034995;28;20432;-71
2022/03/18 02:19:48;;;;;;;37.20;26.80;;;7.90;51.50;;;;;;5035244;28;20191;-70
2022/03/18 02:22:17;;;;;;;37.93;26.70;;;7.70;51.80;;;;;;5035064;28;20204;-71
2022/03/18 02:24:45;;;;;;;39.87;27.80;;;7.80;52.10;;;;;;5035057;28;20924;-70
2022/03/18 02:27:11;;;;;;;37.20;24.23;;;7.70;50.40;;;;;;5035182;28;20461;-70
2022/03/18 02:29:37;;;;;;;32.37;26.13;;;7.70;51.90;;;;;;5034819;28;20436;-70
2022/03/18 02:32:04;;;;;;;34.53;23.23;;;7.60;52.60;;;;;;5050254;28;20425;-70
2022/03/18 02:34:31;;;;;;;32.17;23.00;;;7.50;52.70;;;;;;5034777;28;20516;-70
2022/03/18 02:36:58;;;;;;;34.23;25.27;;;7.50;53.00;;;;;;5034525;28;20414;-70
2022/03/18 02:39:23;;;;;;;26.60;22.67;;;7.50;53.10;;;;;;5034852;28;20761;-70
2022/03/18 02:41:49;;;;;;;27.27;22.40;;;7.30;54.20;;;;;;5034827;28;20454;-70
2022/03/18 02:44:14;;;;;;;26.17;21.40;;;7.40;54.40;;;;;;5034658;28;20196;-70
2022/03/18 02:46:40;;;;;;;36.50;27.07;;;7.50;54.10;;;;;;5049772;28;20199;-70
2022/03/18 02:49:07;;;;;;;31.73;23.80;;;7.50;52.00;;;;;;5034735;28;20167;-70
2022/03/18 02:51:37;;;;;;;36.63;26.37;;;7.40;53.60;;;;;;5034589;28;20185;-70
2022/03/18 02:54:06;;;;;;;27.97;21.10;;;7.30;54.00;;;;;;5034815;28;20931;-70
2022/03/18 02:56:33;;;;;;;28.53;20.50;;;7.30;54.10;;;;;;5035010;28;20418;-70
2022/03/18 02:59:00;;;;;;;34.20;26.90;;;7.50;53.70;;;;;;5034495;28;20468;-68
2022/03/18 03:01:30;;;;;;;32.97;22.83;;;7.40;51.80;;;;;;5036033;28;20985;-69
2022/03/18 03:03:57;;;;;;;28.37;21.67;;;7.30;53.40;;;;;;5036507;28;20971;-69
2022/03/18 03:09:07;;;;;;;28.77;22.50;;;7.50;52.40;;;;;;5035817;28;20820;-68
2022/03/18 03:11:34;;;;;;;25.70;19.90;;;7.50;50.50;;;;;;5035406;28;20411;-68
2022/03/18 03:14:00;;;;;;;30.90;21.70;;;7.60;52.20;;;;;;5035492;28;20269;-68
2022/03/18 03:16:26;;;;;;;24.03;18.63;;;7.50;51.90;;;;;;5035039;28;20459;-69
2022/03/18 03:18:52;;;;;;;26.07;22.17;;;7.50;51.30;;;;;;5035939;28;20418;-69
2022/03/18 03:21:17;;;;;;;28.00;21.40;;;7.50;50.20;;;;;;5036268;28;20533;-69
2022/03/18 03:23:43;;;;;;;32.47;19.77;;;7.50;51.00;;;;;;5034509;28;20216;-68
2022/03/18 03:26:08;;;;;;;25.60;19.97;;;7.50;51.00;;;;;;5036081;28;20664;-68
2022/03/18 03:28:34;;;;;;;20.77;17.10;;;7.10;53.10;;;;;;5035289;28;20589;-69
2022/03/18 03:31:00;;;;;;;27.53;18.33;;;7.30;53.30;;;;;;5034924;28;20171;-69
2022/03/18 03:33:26;;;;;;;28.60;22.20;;;7.50;52.20;;;;;;5034369;28;20199;-70
2022/03/18 03:35:52;;;;;;;37.33;23.00;;;7.50;51.10;;;;;;5034665;28;20310;-70
2022/03/18 03:38:19;;;;;;;24.90;19.67;;;7.20;52.50;;;;;;5034841;28;20413;-69
2022/03/18 03:40:44;;;;;;;26.37;18.03;;;7.40;53.00;;;;;;5035383;28;20415;-69
2022/03/18 03:43:10;;;;;;;27.87;18.97;;;7.50;52.30;;;;;;5035092;28;20449;-68
2022/03/18 03:45:37;;;;;;;30.33;21.20;;;7.50;51.20;;;;;;5035175;28;20595;-69
2022/03/18 03:48:03;;;;;;;27.37;20.97;;;7.20;52.30;;;;;;5034294;28;20250;-69
2022/03/18 03:50:29;;;;;;;25.93;20.90;;;7.30;51.70;;;;;;5034630;28;20413;-68
2022/03/18 03:52:54;;;;;;;30.03;21.53;;;7.30;51.40;;;;;;5034304;28;20417;-68
2022/03/18 03:55:20;;;;;;;34.00;23.23;;;7.20;51.80;;;;;;5034124;28;20192;-68
2022/03/18 03:57:48;;;;;;;29.10;19.23;;;6.90;53.60;;;;;;5034219;28;20187;-69
2022/03/18 04:00:15;;;;;;;26.83;20.30;;;7.10;53.30;;;;;;5034284;28;20183;-68
2022/03/18 04:02:42;;;;;;;31.40;20.33;;;6.90;53.20;;;;;;5033967;28;20956;-69
2022/03/18 04:05:09;;;;;;;28.80;18.60;;;7.00;53.80;;;;;;5034115;28;20442;-68
2022/03/18 04:07:39;;;;;;;26.07;20.77;;;6.90;53.90;;;;;;5034134;28;20444;-69
2022/03/18 04:10:06;;;;;;;29.43;22.77;;;7.00;54.70;;;;;;5033650;28;20411;-68
2022/03/18 04:12:35;;;;;;;23.50;18.70;;;7.10;53.20;;;;;;5034758;28;20508;-68
2022/03/18 04:15:02;;;;;;;25.50;20.47;;;7.10;54.40;;;;;;5048924;28;20458;-69
2022/03/18 04:17:36;;;;;;;23.63;19.20;;;7.20;52.60;;;;;;5034071;28;20971;-68
2022/03/18 04:20:02;;;;;;;25.10;20.23;;;7.40;52.10;;;;;;5034754;28;20449;-68
2022/03/18 04:22:27;;;;;;;23.43;18.90;;;7.50;51.00;;;;;;5034505;28;20542;-69
2022/03/18 04:24:53;;;;;;;28.57;18.93;;;7.50;50.10;;;;;;5034542;28;20202;-68
2022/03/18 04:27:21;;;;;;;26.00;17.93;;;7.50;50.20;;;;;;5034083;28;20172;-69
2022/03/18 04:29:46;;;;;;;21.50;16.73;;;7.60;50.00;;;;;;5034142;28;20186;-68
2022/03/18 04:32:12;;;;;;;28.50;21.63;;;7.70;49.40;;;;;;5034417;28;20429;-68
2022/03/18 04:34:37;;;;;;;27.30;21.60;;;7.80;48.70;;;;;;5034367;28;20207;-68
2022/03/18 04:37:03;;;;;;;28.27;21.47;;;7.70;47.20;;;;;;5034393;28;20237;-68
2022/03/18 04:39:29;;;;;;;23.63;18.07;;;7.20;50.00;;;;;;5034745;28;20182;-68
2022/03/18 04:41:54;;;;;;;25.07;20.90;;;7.40;50.10;;;;;;5034309;28;20469;-68
2022/03/18 04:44:20;;;;;;;29.20;21.13;;;7.30;49.80;;;;;;5034286;28;20236;-69
2022/03/18 04:46:48;;;;;;;23.67;19.83;;;7.20;50.00;;;;;;5034386;28;20179;-68
2022/03/18 04:49:13;;;;;;;20.80;18.03;;;7.20;51.20;;;;;;5034509;28;20279;-74
2022/03/18 04:51:39;;;;;;;28.53;20.47;;;7.40;50.20;;;;;;5035108;28;20446;-67
2022/03/18 04:54:04;;;;;;;23.47;18.27;;;7.40;50.10;;;;;;5034927;28;20461;-69
2022/03/18 04:59:14;;;;;;;22.70;19.63;;;7.40;49.60;;;;;;5033883;28;20274;-68
2022/03/18 05:01:40;;;;;;;27.93;20.53;;;7.00;50.20;;;;;;5033918;28;20551;-68
2022/03/18 05:04:06;;;;;;;29.07;20.10;;;7.10;51.40;;;;;;5033912;28;20227;-68
2022/03/18 05:06:33;;;;;;;31.77;21.80;;;7.10;51.50;;;;;;5033859;28;20493;-68
2022/03/18 05:08:59;;;;;;;22.47;18.90;;;7.10;51.80;;;;;;5033611;28;20279;-68
2022/03/18 05:11:24;;;;;;;31.33;22.50;;;7.30;51.10;;;;;;5033326;28;20481;-68
2022/03/18 05:13:51;;;;;;;36.40;21.07;;;7.30;50.00;;;;;;5034170;28;20246;-69
2022/03/18 05:16:17;;;;;;;28.93;21.73;;;7.20;50.00;;;;;;5033841;28;20611;-70
2022/03/18 05:18:42;;;;;;;29.30;21.87;;;7.00;51.70;;;;;;5033588;28;20456;-69
2022/03/18 05:21:08;;;;;;;25.50;18.87;;;7.20;50.60;;;;;;5033459;28;20711;-69
2022/03/18 05:23:34;;;;;;;28.90;18.90;;;7.40;50.10;;;;;;5033198;28;20222;-70
2022/03/18 05:25:59;;;;;;;31.93;22.80;;;7.50;49.40;;;;;;5032548;28;20595;-69
2022/03/18 05:28:26;;;;;;;27.93;19.20;;;7.50;48.40;;;;;;5033272;28;20229;-69
2022/03/18 05:30:52;;;;;;;31.87;21.47;;;7.40;48.80;;;;;;5033970;28;20267;-69
2022/03/18 05:33:19;;;;;;;29.60;21.53;;;7.30;49.60;;;;;;5033474;28;20867;-69
2022/03/18 05:35:45;;;;;;;34.00;22.93;;;7.00;51.60;;;;;;5047227;28;20457;-69
2022/03/18 05:38:10;;;;;;;27.73;22.70;;;6.90;51.60;;;;;;5031515;28;20456;-69
2022/03/18 05:40:36;;;;;;;32.17;27.00;;;6.90;52.00;;;;;;5031983;28;20425;-69
2022/03/18 05:43:01;;;;;;;27.80;21.60;;;6.80;52.70;;;;;;5031909;28;20611;-70
2022/03/18 05:45:27;;;;;;;41.37;26.17;;;6.90;52.30;;;;;;5033793;28;20183;-69
2022/03/18 05:47:53;;;;;;;33.70;24.80;;;7.00;50.70;;;;;;5036705;28;20182;-69
2022/03/18 05:50:19;;;;;;;34.10;23.77;;;7.00;51.50;;;;;;5037600;28;20179;-69
2022/03/18 05:52:45;;;;;;;35.10;24.70;;;6.90;51.60;;;;;;5037431;28;20187;-69
2022/03/18 05:55:11;;;;;;;33.77;27.07;;;6.90;50.80;;;;;;5037506;28;20488;-69
2022/03/18 05:57:37;;;;;;;36.73;23.67;;;6.90;51.00;;;;;;5036746;28;20273;-69
2022/03/18 06:00:04;;;;;;;27.33;19.77;;;6.80;51.90;;;;;;5036854;28;20501;-69
2022/03/18 06:02:29;;;;;;;30.73;22.03;;;6.80;52.20;;;;;;5036540;28;20503;-69
2022/03/18 06:04:55;;;;;;;29.07;24.33;;;7.00;52.70;;;;;;5035554;28;20465;-68
2022/03/18 06:07:21;;;;;;;29.37;21.90;;;7.10;51.10;;;;;;5035184;28;20679;-72
2022/03/18 06:12:30;;;;;;;25.70;19.40;;;7.30;48.50;;;;;;5035591;28;20420;-70
2022/03/18 06:14:56;;;;;;;30.23;21.90;;;7.40;48.40;;;;;;5050599;28;20964;-70
2022/03/18 06:17:22;;;;;;;32.23;25.17;;;7.30;47.70;;;;;;5034920;28;20183;-70
2022/03/18 06:19:47;;;;;;;32.33;23.40;;;7.10;48.00;;;;;;5035275;28;20176;-70
2022/03/18 06:22:13;;;;;;;29.90;23.70;;;7.30;48.80;;;;;;5035135;28;20211;-69
2022/03/18 06:24:38;;;;;;;31.60;21.00;;;7.10;48.10;;;;;;5035580;28;20199;-70
2022/03/18 06:27:05;;;;;;;30.60;22.73;;;7.10;48.90;;;;;;5034687;28;20187;-69
2022/03/18 06:29:31;;;;;;;30.47;23.67;;;7.10;48.50;;;;;;5034830;28;20188;-70
2022/03/18 06:31:58;;;;;;;28.97;24.37;;;7.10;49.50;;;;;;5034691;28;20426;-69
2022/03/18 06:34:24;;;;;;;32.90;23.10;;;6.90;49.20;;;;;;5035083;28;20805;-70
2022/03/18 06:36:51;;;;;;;29.13;21.60;;;7.00;49.70;;;;;;5034548;28;20425;-69
2022/03/18 06:39:19;;;;;;;27.00;21.60;;;6.90;49.70;;;;;;5034780;28;20184;-68
2022/03/18 06:41:44;;;;;;;43.13;27.30;;;6.90;49.70;;;;;;5034489;28;20534;-68
2022/03/18 06:44:10;;;;;;;29.73;19.63;;;7.00;49.40;;;;;;5034481;28;20429;-69
2022/03/18 06:46:36;;;;;;;28.67;22.50;;;7.10;49.90;;;;;;5034546;28;20237;-70
2022/03/18 06:49:03;;;;;;;36.80;23.60;;;7.20;49.30;;;;;;5034519;28;20178;-68
2022/03/18 06:51:29;;;;;;;39.30;23.93;;;7.10;47.80;;;;;;5034542;28;20418;-68
2022/03/18 06:53:54;;;;;;;28.80;21.20;;;7.30;46.80;;;;;;5034433;28;20438;-69
2022/03/18 06:56:20;;;;;;;30.50;21.87;;;7.00;48.20;;;;;;5049519;28;20211;-70
2022/03/18 06:58:46;;;;;;;28.63;21.53;;;7.00;48.10;;;;;;5033232;28;20195;-69
2022/03/18 07:01:12;;;;;;;26.50;20.93;;;7.10;48.10;;;;;;5034489;28;20426;-68
2022/03/18 07:03:38;;;;;;;25.27;18.77;;;7.10;47.90;;;;;;5034384;28;20210;-68
2022/03/18 07:06:03;;;;;;;35.37;23.57;;;7.10;48.30;;;;;;5034367;28;20906;-68
2022/03/18 07:08:29;;;;;;;43.30;25.97;;;7.20;48.20;;;;;;5034093;28;20413;-68
2022/03/18 07:10:55;;;;;;;31.40;20.20;;;7.20;47.70;;;;;;5049549;28;20544;-68
2022/03/18 07:13:20;;;;;;;32.93;22.87;;;7.30;47.30;;;;;;5033924;28;20286;-68
2022/03/18 07:15:46;;;;;;;28.40;21.30;;;7.20;48.60;;;;;;5032848;28;20181;-68
2022/03/18 07:18:12;;;;;;;27.33;20.70;;;7.00;47.60;;;;;;5032464;28;20184;-68
2022/03/18 07:20:38;;;;;;;36.23;26.07;;;6.90;48.50;;;;;;5049377;28;20644;-69
2022/03/18 07:23:14;;;;;;;38.63;25.13;;;6.90;49.70;;;;;;5033671;28;20458;-69
2022/03/18 07:25:43;;;;;;;35.60;23.63;;;7.10;49.00;;;;;;5033968;28;20408;-70
2022/03/18 07:28:11;;;;;;;43.87;26.80;;;7.30;46.90;;;;;;5033382;28;20791;-69
2022/03/18 07:30:39;;;;;;;35.83;24.13;;;7.30;45.80;;;;;;5033680;28;20500;-70
2022/03/18 07:33:05;;;;;;;35.90;24.73;;;7.20;47.20;;;;;;5034038;28;20848;-70
2022/03/18 07:35:32;;;;;;;39.83;25.77;;;7.30;46.50;;;;;;5049008;28;20595;-71
2022/03/18 07:37:57;;;;;;;39.57;28.27;;;7.30;46.00;;;;;;5033266;28;20415;-70
2022/03/18 07:40:24;;;;;;;36.00;24.37;;;7.20;46.50;;;;;;5033424;28;20468;-71
2022/03/18 07:42:51;;;;;;;33.37;23.30;;;7.30;45.30;;;;;;5033901;28;20214;-70
2022/03/18 07:45:28;;;;;;;33.60;29.87;;;7.50;45.40;;;;;;5011906;28;21010;-71
2022/03/18 07:47:56;;;;;;;36.63;25.50;;;7.40;45.20;;;;;;5013644;28;20407;-70
2022/03/18 07:50:23;;;;;;;32.13;24.80;;;7.30;45.40;;;;;;5028951;28;20496;-71
2022/03/18 07:53:00;;;;;;;37.83;24.90;;;7.50;45.30;;;;;;5013636;28;20420;-67
2022/03/18 07:55:28;;;;;;;44.53;27.67;;;7.60;44.10;;;;;;5012255;28;20513;-68
2022/03/18 07:57:54;;;;;;;39.03;25.60;;;7.80;42.60;;;;;;5013329;28;20925;-69
2022/03/18 08:00:21;;;;;;;36.50;24.77;;;8.00;43.00;;;;;;5028632;28;20503;-69
2022/03/18 08:02:48;;;;;;;36.70;25.63;;;8.10;40.70;;;;;;5013503;28;20853;-69
2022/03/18 08:05:14;;;;;;;29.57;23.27;;;7.90;40.50;;;;;;5013442;28;20477;-70
2022/03/18 08:07:41;;;;;;;34.63;24.67;;;7.80;41.90;;;;;;5013035;28;20761;-70
2022/03/18 08:10:08;;;;;;;33.17;24.50;;;7.90;41.40;;;;;;5013065;28;20420;-70
2022/03/18 08:12:35;;;;;;;32.33;23.47;;;7.90;41.10;;;;;;5013374;28;20466;-70
2022/03/18 08:15:06;;;;;;;40.57;30.47;;;7.90;41.30;;;;;;5037915;28;20470;-70
2022/03/18 08:17:31;;;;;;;37.33;28.70;;;7.70;42.10;;;;;;5032685;28;20429;-70
2022/03/18 08:19:57;;;;;;;35.93;26.80;;;7.80;41.30;;;;;;5045813;28;20448;-70
2022/03/18 08:22:24;;;;;;;31.83;23.00;;;7.70;40.40;;;;;;5032613;28;20214;-70
2022/03/18 08:24:51;;;;;;;40.80;26.20;;;7.80;41.90;;;;;;5033718;28;20754;-69
2022/03/18 08:27:17;;;;;;;48.43;30.03;;;7.80;41.70;;;;;;5032514;28;20428;-69
2022/03/18 08:29:45;;;;;;;31.90;24.50;;;7.70;41.60;;;;;;5018054;28;20426;-70
2022/03/18 08:32:14;;;;;;;35.33;25.07;;;7.80;41.40;;;;;;5013680;28;20184;-69
2022/03/18 08:34:39;;;;;;;35.17;26.73;;;7.80;41.00;;;;;;5032368;28;20452;-69
2022/03/18 08:37:06;;;;;;;37.20;28.00;;;7.90;39.10;;;;;;5032215;28;20489;-70
2022/03/18 08:39:41;;;;;;;35.67;26.63;;;8.10;40.40;;;;;;5032788;28;20181;-70
2022/03/18 08:42:07;;;;;;;35.77;25.10;;;8.30;38.20;;;;;;5032447;28;20481;-69
2022/03/18 08:44:33;;;;;;;31.27;25.30;;;8.20;37.30;;;;;;5032198;28;20433;-69
2022/03/18 08:46:59;;;;;;;36.60;24.90;;;8.20;38.60;;;;;;5031372;28;20484;-69
2022/03/18 08:49:26;;;;;;;42.20;29.23;;;8.40;37.40;;;;;;5032187;28;20416;-70
2022/03/18 08:51:51;;;;;;;34.20;26.07;;;8.30;37.10;;;;;;5032049;28;20441;-69
2022/03/18 08:54:21;;;;;;;31.67;24.37;;;8.50;36.90;;;;;;5027950;28;20460;-71
2022/03/18 08:56:47;;;;;;;33.50;24.20;;;8.70;34.90;;;;;;5031757;28;20231;-71
2022/03/18 08:59:13;;;;;;;34.17;25.70;;;8.70;33.90;;;;;;5025720;28;20529;-69
2022/03/18 09:01:38;;;;;;;36.23;26.50;;;8.40;35.80;;;;;;5025512;28;20554;-69
2022/03/18 09:04:04;;;;;;;28.57;23.53;;;8.40;35.80;;;;;;5028535;28;20221;-69
2022/03/18 09:06:29;;;;;;;41.43;27.23;;;8.70;35.80;;;;;;5030433;28;20237;-69
2022/03/18 09:09:03;;;;;;;30.57;24.77;;;8.80;33.00;;;;;;5031850;28;20648;-69
2022/03/18 09:11:29;;;;;;;38.17;22.57;;;8.90;32.50;;;;;;5031943;28;20212;-69
2022/03/18 09:13:55;;;;;;;29.07;25.80;;;9.20;31.20;;;;;;5031937;28;20452;-69
2022/03/18 09:16:20;;;;;;;34.00;29.00;;;9.40;30.30;;;;;;5030550;28;20430;-68
2022/03/18 09:18:46;;;;;;;32.73;27.27;;;9.40;29.70;;;;;;5032036;28;20178;-69
2022/03/18 09:21:12;;;;;;;30.60;26.33;;;9.40;30.90;;;;;;5030318;28;20752;-69
2022/03/18 09:23:38;;;;;;;33.70;25.70;;;9.70;30.00;;;;;;5031662;28;20190;-69
2022/03/18 09:26:03;;;;;;;34.13;26.30;;;9.90;29.10;;;;;;5030413;28;20557;-69
2022/03/18 09:28:29;;;;;;;33.97;26.70;;;9.90;28.10;;;;;;5030944;28;20190;-69
2022/03/18 09:30:54;;;;;;;30.20;24.93;;;9.50;28.30;;;;;;5031506;28;20225;-69
2022/03/18 09:33:20;;;;;;;30.57;27.20;;;9.80;28.10;;;;;;5031322;28;20202;-69
2022/03/18 09:35:45;;;;;;;27.07;24.40;;;10.10;25.90;;;;;;5031580;28;20573;-68
2022/03/18 09:38:11;;;;;;;41.47;30.17;;;10.20;25.40;;;;;;5031541;28;20217;-69
2022/03/18 09:40:37;;;;;;;34.17;27.70;;;9.80;25.70;;;;;;5031308;28;20220;-69
2022/03/18 09:43:04;;;;;;;39.47;27.90;;;9.50;26.30;;;;;;5031190;28;20203;-69
2022/03/18 09:45:33;;;;;;;31.00;27.70;;;9.70;25.80;;;;;;5030644;28;20461;-69
2022/03/18 09:47:59;;;;;;;32.50;25.70;;;9.90;26.20;;;;;;5030455;28;20422;-70
2022/03/18 09:50:26;;;;;;;28.30;25.33;;;10.00;24.70;;;;;;5031265;28;20426;-69
2022/03/18 09:52:52;;;;;;;29.10;26.10;;;10.20;25.40;;;;;;5030160;28;20829;-69
2022/03/18 09:55:18;;;;;;;30.63;27.47;;;10.50;24.10;;;;;;5030029;28;20537;-69
2022/03/18 09:57:43;;;;;;;28.30;25.30;;;10.70;23.10;;;;;;5031511;28;20183;-70
2022/03/18 10:00:10;;;;;;;32.43;26.53;;;10.30;23.20;;;;;;5031603;28;20174;-69
2022/03/18 10:02:35;;;;;;;27.77;24.83;;;10.20;23.70;;;;;;5031306;28;20751;-69
2022/03/18 10:05:02;;;;;;;31.03;25.43;;;10.00;24.10;;;;;;5031468;28;20557;-70
2022/03/18 10:07:29;;;;;;;29.80;26.57;;;10.40;24.50;;;;;;5029530;28;20671;-70
2022/03/18 10:10:05;;;;;;;25.73;23.33;;;10.60;23.00;;;;;;5032197;28;20406;-70
2022/03/18 10:12:36;;;;;;;29.70;24.30;;;10.80;23.10;;;;;;5029833;28;20428;-69
2022/03/18 10:15:04;;;;;;;31.93;28.60;;;10.80;23.10;;;;;;5046855;28;20468;-69
2022/03/18 10:17:50;;;;;;;28.93;26.00;;;11.10;21.80;;;;;;5028218;28;20430;-69
2022/03/18 10:20:37;;;;;;;32.23;28.93;;;10.70;21.90;;;;;;5042821;28;20452;-69
2022/03/18 10:23:25;;;;;;;30.83;27.53;;;10.80;21.20;;;;;;5027057;28;20631;-70
2022/03/18 10:25:53;;;;;;;30.40;27.23;;;10.70;22.30;;;;;;5027327;28;20425;-70
2022/03/18 10:28:43;;;;;;;26.80;23.90;;;10.80;21.80;;;;;;5027290;28;20410;-70
2022/03/18 10:31:18;;;;;;;30.07;26.97;;;10.90;22.80;;;;;;5026902;28;20435;-69
2022/03/18 10:37:05;;;;;;;27.63;24.80;;;11.10;21.90;;;;;;5031268;28;20436;-71
2022/03/18 10:39:37;;;;;;;30.33;27.20;;;11.30;21.80;;;;;;5030003;28;20418;-70
2022/03/18 10:42:07;;;;;;;31.27;27.60;;;11.70;20.50;;;;;;5031227;28;20466;-69
2022/03/18 10:44:53;;;;;;;29.33;26.43;;;11.90;18.90;;;;;;5029949;28;20442;-68
2022/03/18 10:47:36;;;;;;;26.90;24.57;;;12.10;19.70;;;;;;5030394;28;20794;-70
2022/03/18 10:50:11;;;;;;;29.53;26.70;;;12.00;17.70;;;;;;5030511;28;20845;-69
2022/03/18 10:52:47;;;;;;;29.23;26.53;;;11.70;18.00;;;;;;5010704;28;20429;-69
2022/03/18 10:55:25;;;;;;;29.07;26.30;;;11.20;18.60;;;;;;5030211;28;20942;-70
2022/03/18 10:57:52;;;;;;;27.73;25.03;;;11.40;19.30;;;;;;5030425;28;20942;-70
2022/03/18 11:00:19;;;;;;;28.20;25.50;;;10.80;18.90;;;;;;5030375;28;20437;-69
2022/03/18 11:02:50;;;;;;;32.23;26.37;;;10.30;20.00;;;;;;5030842;28;21158;-69
2022/03/18 11:05:19;;;;;;;29.07;26.23;;;10.70;20.40;;;;;;5030122;28;20429;-69
2022/03/18 11:07:46;;;;;;;31.67;25.47;;;10.60;19.70;;;;;;5023560;28;20780;-71
2022/03/18 11:13:03;;;;;;;30.10;26.93;;;10.50;19.60;;;;;;5024386;28;20463;-70
2022/03/18 11:15:30;;;;;;;28.10;25.30;;;10.50;20.60;;;;;;5032153;28;20430;-69
2022/03/18 11:17:57;;;;;;;29.90;26.93;;;10.90;19.00;;;;;;5012036;28;20423;-69
2022/03/18 11:20:26;;;;;;;27.70;24.83;;;10.70;19.00;;;;;;5013271;28;20755;-69
2022/03/18 11:22:51;;;;;;;26.80;24.20;;;10.90;19.50;;;;;;5013536;28;20955;-70
2022/03/18 11:25:18;;;;;;;28.57;25.90;;;11.10;19.10;;;;;;5014072;28;20439;-71
2022/03/18 11:27:45;;;;;;;29.80;26.70;;;10.80;18.90;;;;;;5029375;28;20517;-70
2022/03/18 11:30:22;;;;;;;26.67;24.27;;;11.10;19.10;;;;;;5029374;28;20808;-68
2022/03/18 11:33:06;;;;;;;32.23;28.90;;;11.30;19.00;;;;;;5014264;28;20421;-70
2022/03/18 11:35:52;;;;;;;29.33;24.40;;;10.80;19.90;;;;;;5014214;28;20911;-69
2022/03/18 11:38:23;;;;;;;28.27;25.57;;;10.90;18.30;;;;;;5013659;28;20458;-69
2022/03/18 11:40:57;;;;;;;28.30;26.00;;;10.60;18.80;;;;;;5013969;28;20796;-69
2022/03/18 11:43:34;;;;;;;28.23;25.73;;;11.10;19.10;;;;;;5013169;28;20961;-69
2022/03/18 11:46:12;;;;;;;28.47;25.57;;;11.60;18.50;;;;;;5013809;28;20751;-69
2022/03/18 11:48:40;;;;;;;29.17;25.60;;;11.20;17.60;;;;;;5013335;28;20419;-69
2022/03/18 11:51:42;;;;;;;29.77;26.60;;;11.50;18.00;;;;;;5013528;28;20498;-70
2022/03/18 11:54:24;;;;;;;26.47;23.87;;;11.40;17.10;;;;;;5003007;28;20438;-71
2022/03/18 11:56:51;;;;;;;25.73;23.70;;;11.30;18.00;;;;;;5013499;28;20488;-69
2022/03/18 11:59:29;;;;;;;31.03;27.63;;;11.60;17.70;;;;;;5013424;28;20407;-70
2022/03/18 12:02:02;;;;;;;28.07;25.47;;;11.90;17.00;;;;;;5013877;28;20464;-69
2022/03/18 12:04:33;;;;;;;29.07;26.23;;;11.90;17.40;;;;;;5013213;28;20509;-69
2022/03/18 12:07:33;;;;;;;29.13;26.03;;;11.70;17.40;;;;;;5012840;28;20407;-71
2022/03/18 12:10:09;;;;;;;28.60;25.47;;;12.00;17.80;;;;;;5013391;28;20415;-69
2022/03/18 12:12:43;;;;;;;29.70;26.60;;;12.30;17.20;;;;;;5012981;28;20492;-69
2022/03/18 12:15:15;;;;;;;25.73;23.63;;;11.60;17.40;;;;;;5012885;28;20830;-70
2022/03/18 12:17:41;;;;;;;28.20;25.60;;;11.20;17.10;;;;;;5012593;28;20513;-70
2022/03/18 12:20:09;;;;;;;27.80;25.30;;;11.60;18.50;;;;;;5028117;28;20419;-69
2022/03/18 12:22:38;;;;;;;29.87;27.10;;;11.40;18.10;;;;;;5012793;28;20458;-69
2022/03/18 12:25:05;;;;;;;27.73;25.20;;;11.50;18.50;;;;;;5012862;28;20570;-70
2022/03/18 12:27:36;;;;;;;30.80;28.00;;;11.30;17.40;;;;;;5012488;28;20928;-70
2022/03/18 12:30:04;;;;;;;31.23;28.70;;;11.50;17.40;;;;;;5012642;28;20446;-71
2022/03/18 12:32:30;;;;;;;31.77;28.40;;;11.20;18.30;;;;;;5027887;28;20429;-69
2022/03/18 12:34:57;;;;;;;28.43;25.63;;;11.30;18.80;;;;;;5012585;28;20485;-67
2022/03/18 12:37:31;;;;;;;29.77;26.40;;;11.40;17.60;;;;;;5012293;28;20485;-68
2022/03/18 12:40:15;;;;;;;31.30;28.20;;;11.60;17.40;;;;;;5012649;28;20427;-68
2022/03/18 12:42:54;;;;;;;29.73;26.67;;;11.60;17.70;;;;;;5012752;28;21125;-68
2022/03/18 12:45:42;;;;;;;28.37;25.90;;;11.70;17.40;;;;;;5012743;28;20425;-67
2022/03/18 12:48:13;;;;;;;29.00;26.13;;;11.70;17.40;;;;;;5012143;28;20419;-69
2022/03/18 12:50:38;;;;;;;30.30;27.17;;;11.80;17.40;;;;;;5012090;28;20414;-68
2022/03/18 12:53:12;;;;;;;29.60;25.40;;;11.70;16.90;;;;;;5012647;28;20434;-68
2022/03/18 12:55:38;;;;;;;29.33;26.50;;;11.80;17.40;;;;;;5011622;28;20654;-69